Terminal Aerodrome Forecast
Issued by NWS

Current Version | Previous Version | Text Only | Print | Product List | Glossary On
Versions: 1 2 3 4 5 6 7 8 9 10 11 12 13 14 15 16 17 18 19 20 21 22 23 24 25
000
FTUS45 KREV 170500
TAFCXP
TAF
KCXP 170520Z 1706/1806 VRB04KT P6SM BKN200
     FM171700 25008KT P6SM BKN200
     FM172100 25015G28KT P6SM SCT150 BKN200
     FM180400 24006KT P6SM SCT150 BKN200=

USA.gov is the U.S. government's official web portal to all federal, state and local government web resources and services.